aviador You're here:

KVNY Decoded Metar

VAN NUYS in CA, USA
Report Time2018-01-18 12:51:00
UTC Time2018-01-18 13:52:22
Flight Rules vfr VFR
WindCalm
Visibility9999 m
Phenomena:N/A
Clouds:N/A
Expected CloudBase > 2,800 ft AGL from Temp-Dew spread
CeilingNone
Temp12°C (ISA -1)
Dew Point05°C (63% RH)
AAT10.9°C
QNH1019 hPa
Density Alt558 ft
Elevation804 ft
Report Wrong Elevation
Raw Report
METAR KVNY 181251Z AUTO 00000KT 10SM CLR 12/05 A3008 RMK AO2 SLP180
T01170050=

Extra information for KVNY:More info

Metar Taf Metar & Taf Last 4 Metars F.Rules Stats Wind Profile Meteogram Temp Stats Airport Information Weather charts Add Link Nearby VenuesMetar ALERT Operation Metar Decoded Social comments

AIRNAV info for KVNY